Time;durP1;ratioP1;P1;durP2;ratioP2;P2;SDS_P1;SDS_P2;PMS_P1;PMS_P2;Temp;Humidity;BMP_temperature;BMP_pressure;BME280_temperature;BME280_humidity;BME280_pressure;Samples;Min_cycle;Max_cycle;Signal;HPM_P1;HPM_P2
2022/12/11 00:01:12;;;;;;;;;;;;;;;0.30;72.75;94490.88;5071612;28;20298;-70
2022/12/11 00:03:37;;;;;;;;;;;;;;;0.68;72.42;94488.94;5072578;28;20048;-70
2022/12/11 00:06:04;;;;;;;;;;;;;;;0.81;71.21;94488.44;5071444;28;20082;-71
2022/12/11 00:08:29;;;;;;;;;;;;;;;0.86;71.57;94498.13;5070507;28;20017;-71
2022/12/11 00:10:54;;;;;;;;;;;;;;;0.47;72.87;94493.31;5071319;28;20372;-71
2022/12/11 00:13:20;;;;;;;;;;;;;;;0.52;72.69;94496.75;5072681;28;20032;-72
2022/12/11 00:15:45;;;;;;;;;;;;;;;0.12;73.85;94496.56;5072576;28;20118;-72
2022/12/11 00:18:11;;;;;;;;;;;;;;;0.87;71.81;94495.28;5070704;28;20014;-71
2022/12/11 00:20:36;;;;;;;;;;;;;;;0.46;72.36;94487.31;5072199;28;20388;-71
2022/12/11 00:23:03;;;;;;;;;;;;;;;0.76;71.29;94496.28;5071049;28;20017;-71
2022/12/11 00:25:29;;;;;;;;;;;;;;;1.01;71.31;94485.88;5070820;28;20014;-72
2022/12/11 00:27:54;;;;;;;;;;;;;;;1.39;70.08;94481.19;5072069;28;20491;-71
2022/12/11 00:30:19;;;;;;;;;;;;;;;0.71;71.34;94488.41;5070340;28;20070;-71
2022/12/11 00:32:44;;;;;;;;;;;;;;;0.64;71.22;94493.13;5072196;28;20017;-72
2022/12/11 00:35:10;;;;;;;;;;;;;;;0.54;72.19;94491.25;5070009;28;20509;-71
2022/12/11 00:37:35;;;;;;;;;;;;;;;0.36;72.16;94489.88;5072201;28;20013;-71
2022/12/11 00:40:01;;;;;;;;;;;;;;;0.18;72.95;94496.31;5071365;28;20009;-71
2022/12/11 00:42:26;;;;;;;;;;;;;;;0.03;72.82;94498.88;5071788;28;20009;-73
2022/12/11 00:44:52;;;;;;;;;;;;;;;0.46;71.59;94495.16;5070819;28;20017;-73
2022/12/11 00:47:17;;;;;;;;;;;;;;;0.44;71.33;94491.22;5070727;28;20020;-72
2022/12/11 00:49:42;;;;;;;;;;;;;;;0.53;71.14;94494.91;5070028;28;20486;-72
2022/12/11 00:52:09;;;;;;;;;;;;;;;0.51;70.90;94497.78;5070445;28;20013;-72
2022/12/11 00:54:34;;;;;;;;;;;;;;;0.32;71.75;94501.13;5070171;28;20068;-72
2022/12/11 00:57:00;;;;;;;;;;;;;;;0.37;71.67;94499.31;5071672;28;20052;-73
2022/12/11 00:59:26;;;;;;;;;;;;;;;0.54;71.05;94498.31;5071435;28;20005;-73
2022/12/11 01:01:52;;;;;;;;;;;;;;;0.26;71.44;94505.53;5071572;28;20009;-72
2022/12/11 01:04:17;;;;;;;;;;;;;;;-0.11;72.40;94508.97;5070107;28;20013;-73
2022/12/11 01:06:42;;;;;;;;;;;;;;;0.37;71.52;94507.16;5071602;28;20060;-73
2022/12/11 01:11:51;;;;;;;;;;;;;;;0.95;68.87;94504.44;5071462;28;20016;-72
2022/12/11 01:14:16;;;;;;;;;;;;;;;0.66;69.67;94504.88;5071412;28;20111;-74
2022/12/11 01:16:42;;;;;;;;;;;;;;;0.37;70.71;94507.16;5071114;28;20035;-72
2022/12/11 01:19:07;;;;;;;;;;;;;;;0.78;69.44;94509.91;5069904;28;20013;-73
2022/12/11 01:21:33;;;;;;;;;;;;;;;1.17;68.30;94507.63;5069942;28;20013;-73
2022/12/11 01:23:58;;;;;;;;;;;;;;;0.89;68.46;94515.97;5069911;28;20537;-73
2022/12/11 01:26:23;;;;;;;;;;;;;;;0.96;68.33;94512.03;5070961;28;20456;-73
2022/12/11 01:28:50;;;;;;;;;;;;;;;1.23;67.67;94513.69;5069236;28;20424;-74
2022/12/11 01:31:16;;;;;;;;;;;;;;;0.59;69.25;94522.66;5071190;28;20015;-72
2022/12/11 01:33:41;;;;;;;;;;;;;;;0.69;68.86;94527.16;5070915;28;20103;-74
2022/12/11 01:36:09;;;;;;;;;;;;;;;0.78;69.14;94528.25;5071086;28;20109;-72
2022/12/11 01:38:35;;;;;;;;;;;;;;;1.48;67.39;94537.25;5069074;28;20017;-72
2022/12/11 01:41:00;;;;;;;;;;;;;;;0.84;67.89;94536.91;5070740;28;20024;-72
2022/12/11 01:43:25;;;;;;;;;;;;;;;1.23;67.74;94538.03;5069709;28;20016;-73
2022/12/11 01:45:50;;;;;;;;;;;;;;;1.16;67.17;94531.47;5070757;28;20009;-72
2022/12/11 01:48:16;;;;;;;;;;;;;;;0.71;68.57;94536.31;5068139;28;20611;-72
2022/12/11 01:50:44;;;;;;;;;;;;;;;0.83;67.95;94545.81;5069105;28;20013;-71
2022/12/11 01:53:12;;;;;;;;;;;;;;;0.72;68.63;94542.34;5069429;28;20429;-72
2022/12/11 01:55:38;;;;;;;;;;;;;;;0.79;68.50;94537.66;5070880;28;20010;-72
2022/12/11 01:58:04;;;;;;;;;;;;;;;0.82;68.83;94538.97;5070355;28;20012;-72
2022/12/11 02:00:29;;;;;;;;;;;;;;;0.60;68.79;94541.78;5069302;28;20425;-72
2022/12/11 02:02:54;;;;;;;;;;;;;;;0.43;69.13;94536.72;5069280;28;20017;-71
2022/12/11 02:05:20;;;;;;;;;;;;;;;0.06;70.90;94540.22;5069130;28;20021;-72
2022/12/11 02:07:47;;;;;;;;;;;;;;;0.35;69.73;94540.59;5069302;28;20565;-72
2022/12/11 02:10:13;;;;;;;;;;;;;;;0.33;70.26;94545.31;5068609;28;20124;-72
2022/12/11 02:12:41;;;;;;;;;;;;;;;0.29;70.28;94530.38;5068820;28;20056;-72
2022/12/11 02:15:07;;;;;;;;;;;;;;;-0.12;71.83;94538.00;5069081;28;20017;-72
2022/12/11 02:17:35;;;;;;;;;;;;;;;0.56;70.11;94525.00;5070087;28;20016;-71
2022/12/11 02:20:09;;;;;;;;;;;;;;;0.75;69.30;94524.28;5069756;28;20469;-71
2022/12/11 02:22:56;;;;;;;;;;;;;;;0.20;70.86;94532.69;5070099;28;20013;-72
2022/12/11 02:25:31;;;;;;;;;;;;;;;0.24;70.54;94521.47;5068931;28;20017;-72
2022/12/11 02:28:08;;;;;;;;;;;;;;;0.83;69.03;94519.63;5069974;28;20462;-72
2022/12/11 02:30:35;;;;;;;;;;;;;;;0.18;70.53;94516.47;5068592;28;20181;-72
2022/12/11 02:33:01;;;;;;;;;;;;;;;0.58;70.35;94517.69;5070162;28;20049;-72
2022/12/11 02:35:35;;;;;;;;;;;;;;;0.43;69.69;94516.59;5070082;28;20490;-72
2022/12/11 02:38:07;;;;;;;;;;;;;;;0.44;69.16;94517.38;5069596;28;20016;-72
2022/12/11 02:40:34;;;;;;;;;;;;;;;0.72;69.53;94521.41;5068430;28;20013;-72
2022/12/11 02:43:02;;;;;;;;;;;;;;;0.28;70.34;94523.59;5069706;28;20009;-72
2022/12/11 02:45:27;;;;;;;;;;;;;;;0.50;69.24;94524.97;5070015;28;20009;-71
2022/12/11 02:47:52;;;;;;;;;;;;;;;0.29;69.97;94517.31;5069859;28;20023;-72
2022/12/11 02:50:19;;;;;;;;;;;;;;;0.27;70.89;94525.41;5069427;28;20416;-72
2022/12/11 02:52:45;;;;;;;;;;;;;;;-0.02;71.30;94531.00;5068656;28;20017;-72
2022/12/11 02:55:12;;;;;;;;;;;;;;;-0.12;71.82;94532.75;5069689;28;20013;-71
2022/12/11 02:57:43;;;;;;;;;;;;;;;0.13;71.35;94532.13;5070037;28;20010;-72
2022/12/11 03:00:09;;;;;;;;;;;;;;;0.62;69.75;94526.63;5071607;28;20013;-72
2022/12/11 03:02:35;;;;;;;;;;;;;;;0.22;70.89;94535.84;5072567;28;20071;-71
2022/12/11 03:05:00;;;;;;;;;;;;;;;-0.33;72.64;94539.66;5073706;28;20017;-71
2022/12/11 03:07:33;;;;;;;;;;;;;;;0.30;70.95;94539.81;5073766;28;20469;-72
2022/12/11 03:09:58;;;;;;;;;;;;;;;0.67;69.93;94531.88;5071406;28;20032;-71
2022/12/11 03:12:28;;;;;;;;;;;;;;;0.18;70.77;94535.56;5072659;28;20455;-72
2022/12/11 03:14:54;;;;;;;;;;;;;;;0.70;69.33;94526.88;5072497;28;20010;-72
2022/12/11 03:17:25;;;;;;;;;;;;;;;0.19;70.17;94539.75;5072192;28;20018;-72
2022/12/11 03:20:05;;;;;;;;;;;;;;;0.66;69.06;94532.91;5071933;28;20009;-71
2022/12/11 03:22:42;;;;;;;;;;;;;;;0.04;69.96;94539.66;5073493;28;20013;-72
2022/12/11 03:25:21;;;;;;;;;;;;;;;0.21;69.83;94548.13;5072299;28;20062;-72
2022/12/11 03:27:54;;;;;;;;;;;;;;;-0.02;70.51;94549.28;5073519;28;20024;-72
2022/12/11 03:30:20;;;;;;;;;;;;;;;0.30;69.11;94543.19;5071919;28;20017;-72
2022/12/11 03:32:52;;;;;;;;;;;;;;;0.17;69.82;94546.28;5072040;28;20021;-72
2022/12/11 03:35:17;;;;;;;;;;;;;;;0.21;69.87;94552.59;5073223;28;20013;-72
2022/12/11 03:37:43;;;;;;;;;;;;;;;0.57;68.83;94547.53;5073007;28;20350;-72
2022/12/11 03:40:14;;;;;;;;;;;;;;;0.25;68.98;94551.81;5071399;28;20019;-71
2022/12/11 03:42:41;;;;;;;;;;;;;;;0.40;68.40;94556.34;5071741;28;20020;-72
2022/12/11 03:45:07;;;;;;;;;;;;;;;0.52;68.14;94549.09;5073111;28;20477;-72
2022/12/11 03:47:33;;;;;;;;;;;;;;;0.82;67.17;94545.00;5072997;28;20108;-72
2022/12/11 03:49:58;;;;;;;;;;;;;;;0.48;67.80;94544.59;5072679;28;20063;-72
2022/12/11 03:52:26;;;;;;;;;;;;;;;0.15;68.21;94553.56;5072747;28;20429;-72
2022/12/11 03:54:52;;;;;;;;;;;;;;;0.35;68.10;94552.91;5071611;28;20067;-72
2022/12/11 03:57:20;;;;;;;;;;;;;;;0.43;68.31;94550.59;5073005;28;20418;-74
2022/12/11 03:59:45;;;;;;;;;;;;;;;0.56;67.74;94551.16;5072390;28;20016;-72
2022/12/11 04:02:10;;;;;;;;;;;;;;;0.61;67.63;94551.19;5072670;28;20096;-72
2022/12/11 04:04:37;;;;;;;;;;;;;;;0.64;67.76;94555.94;5071245;28;20017;-72
2022/12/11 04:07:02;;;;;;;;;;;;;;;0.45;67.85;94555.56;5072538;28;20534;-72
2022/12/11 04:09:27;;;;;;;;;;;;;;;0.60;67.35;94557.47;5072261;28;20021;-71
2022/12/11 04:11:52;;;;;;;;;;;;;;;0.44;67.98;94548.78;5070007;28;20017;-73
2022/12/11 04:17:01;;;;;;;;;;;;;;;0.43;68.23;94550.59;5052850;28;20377;-72
2022/12/11 04:24:56;;;;;;;;;;;;;;;-0.01;69.49;94552.69;5052748;28;20025;-71
2022/12/11 04:28:06;;;;;;;;;;;;;;;-0.13;69.71;94550.28;5052325;28;20017;-71
2022/12/11 04:30:08;;;;;;;;;;;;;;;-0.18;69.89;94546.84;5047727;28;20025;-70
2022/12/11 04:32:34;;;;;;;;;;;;;;;-0.43;71.24;94550.81;5052147;28;20108;-71
2022/12/11 04:34:59;;;;;;;;;;;;;;;-0.13;70.03;94545.03;5050876;28;20577;-70
2022/12/11 04:37:25;;;;;;;;;;;;;;;-0.08;69.49;94542.47;5050887;28;20013;-71
2022/12/11 04:39:51;;;;;;;;;;;;;;;-0.21;69.61;94549.94;5051729;28;20748;-70
2022/12/11 04:42:16;;;;;;;;;;;;;;;0.03;69.19;94547.75;5052083;28;20021;-71
2022/12/11 04:44:41;;;;;;;;;;;;;;;0.35;68.21;94555.53;5051825;28;20374;-71
2022/12/11 04:47:06;;;;;;;;;;;;;;;0.26;68.70;94547.38;5051985;28;20367;-71
2022/12/11 04:49:32;;;;;;;;;;;;;;;0.05;68.79;94549.06;5049935;28;20390;-71
2022/12/11 04:51:57;;;;;;;;;;;;;;;0.22;68.53;94554.94;5051810;28;20466;-71
2022/12/11 04:54:22;;;;;;;;;;;;;;;-0.16;69.45;94552.59;5050306;28;20569;-71
2022/12/11 04:56:47;;;;;;;;;;;;;;;0.06;68.48;94549.88;5050605;28;20112;-72
2022/12/11 04:59:13;;;;;;;;;;;;;;;0.08;69.06;94545.97;5051347;28;20107;-71
2022/12/11 05:01:38;;;;;;;;;;;;;;;-0.31;69.56;94540.19;5050588;28;20428;-71
2022/12/11 05:04:04;;;;;;;;;;;;;;;-0.38;69.83;94535.19;5051465;28;20013;-70
2022/12/11 05:06:29;;;;;;;;;;;;;;;-0.38;69.89;94537.81;5051310;28;20055;-71
2022/12/11 05:08:54;;;;;;;;;;;;;;;-0.54;70.06;94534.28;5050007;28;20342;-70
2022/12/11 05:11:19;;;;;;;;;;;;;;;-0.48;70.78;94542.94;5051506;28;20009;-72
2022/12/11 05:13:45;;;;;;;;;;;;;;;-0.43;70.72;94540.38;5051285;28;20009;-70
2022/12/11 05:16:12;;;;;;;;;;;;;;;-0.47;69.77;94486.25;5051079;28;20767;-71
2022/12/11 05:18:37;;;;;;;;;;;;;;;-0.08;69.38;94529.41;5050968;28;20017;-71
2022/12/11 05:21:04;;;;;;;;;;;;;;;-0.28;69.19;94532.66;5051491;28;20013;-70
2022/12/11 05:23:30;;;;;;;;;;;;;;;0.08;67.91;94534.72;5051095;28;20033;-70
2022/12/11 05:25:55;;;;;;;;;;;;;;;0.16;67.62;94532.41;5051199;28;20404;-71
2022/12/11 05:28:22;;;;;;;;;;;;;;;-0.10;67.27;94522.84;5049006;28;20086;-71
2022/12/11 05:30:47;;;;;;;;;;;;;;;0.07;67.03;94523.47;5050104;28;20354;-71
2022/12/11 05:33:12;;;;;;;;;;;;;;;0.29;66.45;94523.31;5051033;28;20059;-70
2022/12/11 05:35:37;;;;;;;;;;;;;;;-0.03;66.78;94529.44;5051101;28;20572;-70
2022/12/11 05:38:03;;;;;;;;;;;;;;;0.11;65.53;94531.59;5050498;28;20405;-71
2022/12/11 05:40:28;;;;;;;;;;;;;;;0.30;64.97;94527.50;5050620;28;20033;-70
2022/12/11 05:42:53;;;;;;;;;;;;;;;-0.09;65.93;94522.59;5050827;28;20012;-71
2022/12/11 05:45:18;;;;;;;;;;;;;;;0.16;65.44;94529.03;5049612;28;20013;-71
2022/12/11 05:47:44;;;;;;;;;;;;;;;0.15;65.06;94528.22;5050810;28;20104;-70
2022/12/11 05:50:09;;;;;;;;;;;;;;;0.22;64.75;94528.78;5050430;28;20064;-71
2022/12/11 05:52:35;;;;;;;;;;;;;;;0.10;64.67;94520.34;5050421;28;20100;-71
2022/12/11 05:55:00;;;;;;;;;;;;;;;0.30;63.98;94526.72;5050916;28;20446;-71
2022/12/11 05:57:25;;;;;;;;;;;;;;;0.34;64.57;94509.47;5050630;28;20009;-70
2022/12/11 05:59:50;;;;;;;;;;;;;;;0.55;64.02;94515.59;5050294;28;20010;-70
2022/12/11 06:02:16;;;;;;;;;;;;;;;0.67;63.58;94522.19;5050528;28;20009;-70
2022/12/11 06:04:41;;;;;;;;;;;;;;;0.59;63.61;94517.44;5050204;28;20496;-70
2022/12/11 06:07:06;;;;;;;;;;;;;;;1.25;62.81;94517.59;5048998;28;20020;-70
2022/12/11 06:09:31;;;;;;;;;;;;;;;1.66;62.63;94511.59;5048729;28;20029;-71
2022/12/11 06:11:57;;;;;;;;;;;;;;;1.78;61.52;94512.09;5050409;28;20508;-70
2022/12/11 06:14:22;;;;;;;;;;;;;;;1.95;62.04;94509.22;5050017;28;20009;-71
2022/12/11 06:16:47;;;;;;;;;;;;;;;1.60;61.25;94508.19;5050154;28;20025;-71
2022/12/11 06:19:17;;;;;;;;;;;;;;;1.63;61.55;94512.88;5049610;28;20009;-70
2022/12/11 06:21:42;;;;;;;;;;;;;;;1.22;62.98;94512.09;5050131;28;20010;-71
2022/12/11 06:24:09;;;;;;;;;;;;;;;1.53;62.56;94513.69;5050252;28;20032;-70
2022/12/11 06:26:34;;;;;;;;;;;;;;;1.46;62.76;94510.53;5049898;28;20092;-70
2022/12/11 06:28:59;;;;;;;;;;;;;;;0.66;64.54;94511.94;5049706;28;20116;-71
2022/12/11 06:31:25;;;;;;;;;;;;;;;1.20;64.13;94514.97;5049723;28;20016;-71
2022/12/11 06:33:50;;;;;;;;;;;;;;;1.27;64.12;94519.94;5047934;28;20013;-71
2022/12/11 06:36:16;;;;;;;;;;;;;;;1.35;63.67;94518.66;5048433;28;20513;-71
2022/12/11 06:38:42;;;;;;;;;;;;;;;1.15;64.25;94511.56;5048436;28;20063;-71
2022/12/11 06:41:09;;;;;;;;;;;;;;;1.63;63.52;94506.88;5049277;28;20488;-70
2022/12/11 06:43:36;;;;;;;;;;;;;;;1.91;62.75;94502.91;5049988;28;20075;-70
2022/12/11 06:46:05;;;;;;;;;;;;;;;1.54;62.99;94514.47;5050054;28;20048;-70
2022/12/11 06:48:31;;;;;;;;;;;;;;;1.45;63.31;94506.34;5049608;28;20105;-70
2022/12/11 06:50:56;;;;;;;;;;;;;;;1.58;63.38;94507.66;5079566;23;20127;-67
2022/12/11 06:53:22;;;;;;;;;;;;;;;1.32;63.75;94508.69;5089746;28;20031;-67
2022/12/11 06:55:47;;;;;;;;;;;;;;;0.69;64.53;94514.84;5089957;28;20566;-68
2022/12/11 06:58:12;;;;;;;;;;;;;;;0.18;63.65;94389.09;5089337;28;20528;-67
2022/12/11 07:00:38;;;;;;;;;;;;;;;0.76;64.69;94510.16;5089566;28;20073;-69
2022/12/11 07:03:03;;;;;;;;;;;;;;;1.56;63.52;94512.38;5089876;28;20028;-69
2022/12/11 07:05:31;;;;;;;;;;;;;;;1.59;62.91;94517.09;5069014;28;20014;-70
2022/12/11 07:07:56;;;;;;;;;;;;;;;2.01;62.17;94508.94;5049360;28;20009;-66
2022/12/11 07:10:22;;;;;;;;;;;;;;;1.60;62.41;94512.66;5053886;28;20017;-65
2022/12/11 07:12:47;;;;;;;;;;;;;;;1.61;62.07;94525.47;5069718;28;20055;-66
2022/12/11 07:15:13;;;;;;;;;;;;;;;1.90;61.50;94520.50;5066357;28;20013;-65
2022/12/11 07:17:38;;;;;;;;;;;;;;;1.39;62.01;94522.34;5058628;28;20036;-65
2022/12/11 07:20:04;;;;;;;;;;;;;;;1.47;62.20;94533.06;5056736;28;20020;-65
2022/12/11 07:22:29;;;;;;;;;;;;;;;1.27;61.83;94531.22;5069669;28;20016;-66
2022/12/11 07:24:55;;;;;;;;;;;;;;;1.38;62.78;94526.78;5051483;28;20017;-66
2022/12/11 07:27:20;;;;;;;;;;;;;;;1.27;62.78;94531.22;5069514;28;20100;-65
2022/12/11 07:29:45;;;;;;;;;;;;;;;1.74;62.31;94539.88;5069119;28;20039;-66
2022/12/11 07:32:11;;;;;;;;;;;;;;;1.56;61.64;94536.75;5069591;28;20010;-67
2022/12/11 07:34:36;;;;;;;;;;;;;;;1.43;62.77;94532.00;5068678;28;20059;-68
2022/12/11 07:37:01;;;;;;;;;;;;;;;1.56;62.21;94544.63;5069583;28;20104;-69
2022/12/11 07:39:26;;;;;;;;;;;;;;;1.19;62.77;94539.59;5069088;28;20010;-68
2022/12/11 07:41:52;;;;;;;;;;;;;;;1.62;62.68;94539.38;5069450;28;20330;-68
2022/12/11 07:44:17;;;;;;;;;;;;;;;1.47;62.48;94538.31;5069301;28;20499;-68
2022/12/11 07:46:42;;;;;;;;;;;;;;;2.17;62.02;94535.91;5055173;28;20393;-68
2022/12/11 07:49:08;;;;;;;;;;;;;;;2.47;60.87;94527.19;5072655;28;20499;-68
2022/12/11 07:51:34;;;;;;;;;;;;;;;1.87;61.63;94528.88;5054231;28;20028;-68
2022/12/11 07:54:01;;;;;;;;;;;;;;;2.33;60.19;94534.03;5072014;28;20021;-67
2022/12/11 07:56:27;;;;;;;;;;;;;;;1.98;60.96;94538.31;5073543;28;20109;-65
2022/12/11 07:58:53;;;;;;;;;;;;;;;2.21;59.97;94536.19;5073270;28;20052;-65
2022/12/11 08:01:21;;;;;;;;;;;;;;;2.44;60.24;94524.31;5055731;28;20355;-66
2022/12/11 08:03:47;;;;;;;;;;;;;;;2.28;60.19;94534.06;5073525;28;20016;-67
2022/12/11 08:06:12;;;;;;;;;;;;;;;2.71;59.86;94531.81;5072805;28;20017;-67
2022/12/11 08:08:38;;;;;;;;;;;;;;;3.15;59.55;94531.88;5072501;28;20025;-67
2022/12/11 08:11:04;;;;;;;;;;;;;;;3.08;58.26;94532.19;5055152;28;20021;-68
2022/12/11 08:13:30;;;;;;;;;;;;;;;3.20;57.81;94533.69;5073642;28;20469;-69
2022/12/11 08:15:55;;;;;;;;;;;;;;;3.59;58.28;94531.84;5055647;28;20013;-67
2022/12/11 08:18:20;;;;;;;;;;;;;;;3.85;58.33;94534.28;5055025;28;20021;-69
2022/12/11 08:20:46;;;;;;;;;;;;;;;4.10;58.26;94530.66;5072278;28;20017;-66
2022/12/11 08:23:11;;;;;;;;;;;;;;;4.31;57.40;94531.22;5072963;28;20013;-69
2022/12/11 08:25:36;;;;;;;;;;;;;;;4.50;57.39;94534.69;5053719;28;20025;-69
2022/12/11 08:28:01;;;;;;;;;;;;;;;3.06;55.49;94539.53;5054584;28;20066;-67
2022/12/11 08:30:26;;;;;;;;;;;;;;;1.42;59.83;94546.16;5072468;28;20056;-65
2022/12/11 08:32:52;;;;;;;;;;;;;;;2.57;58.01;94542.91;5072783;28;20009;-66
2022/12/11 08:35:17;;;;;;;;;;;;;;;2.91;57.67;94544.06;5054154;28;20025;-66
2022/12/11 08:37:42;;;;;;;;;;;;;;;1.59;60.29;94555.63;5054457;28;20107;-66
2022/12/11 08:40:08;;;;;;;;;;;;;;;1.13;61.60;94553.75;5071316;28;20474;-65
2022/12/11 08:42:34;;;;;;;;;;;;;;;1.08;62.54;94553.72;5072228;28;20070;-67
2022/12/11 08:44:59;;;;;;;;;;;;;;;1.47;61.82;94554.03;5054642;28;20440;-67
2022/12/11 08:47:25;;;;;;;;;;;;;;;0.68;63.01;94559.63;5072345;28;20492;-66
2022/12/11 08:49:50;;;;;;;;;;;;;;;1.29;62.15;94565.03;5047788;28;20021;-65
2022/12/11 08:52:16;;;;;;;;;;;;;;;0.47;63.09;94562.13;5058104;28;20096;-68
2022/12/11 08:54:41;;;;;;;;;;;;;;;0.69;63.48;94561.19;5053598;28;20086;-68
2022/12/11 08:57:07;;;;;;;;;;;;;;;0.85;63.13;94568.03;5071742;28;20009;-68
2022/12/11 08:59:32;;;;;;;;;;;;;;;1.29;60.95;94571.06;5054037;28;20013;-68
2022/12/11 09:01:57;;;;;;;;;;;;;;;0.88;61.94;94569.38;5071806;28;20487;-68
2022/12/11 09:04:22;;;;;;;;;;;;;;;0.70;61.43;94566.16;5071838;28;20460;-68
2022/12/11 09:06:48;;;;;;;;;;;;;;;0.47;63.35;94571.81;5071308;28;20078;-68
2022/12/11 09:09:13;;;;;;;;;;;;;;;0.63;61.08;94567.44;5055094;28;20090;-69
2022/12/11 09:11:39;;;;;;;;;;;;;;;0.94;61.30;94560.50;5072142;28;20016;-67
2022/12/11 09:14:05;;;;;;;;;;;;;;;0.29;62.30;94572.22;5051652;28;20070;-68
2022/12/11 09:16:31;;;;;;;;;;;;;;;0.30;62.37;94571.19;5053956;28;20014;-70
2022/12/11 09:18:57;;;;;;;;;;;;;;;0.64;61.56;94569.81;5053561;28;20023;-70
2022/12/11 09:21:23;;;;;;;;;;;;;;;0.85;60.39;94564.66;5071208;28;20025;-70
2022/12/11 09:23:51;;;;;;;;;;;;;;;0.16;62.50;94563.81;5054038;28;20066;-69
2022/12/11 09:26:17;;;;;;;;;;;;;;;-0.43;63.35;94563.91;5068941;28;20508;-69
2022/12/11 09:28:42;;;;;;;;;;;;;;;0.18;62.38;94553.88;5051230;28;20026;-69
2022/12/11 09:31:12;;;;;;;;;;;;;;;0.21;62.52;94553.38;5051730;28;20056;-70
2022/12/11 09:33:37;;;;;;;;;;;;;;;0.14;63.05;94554.63;5051773;28;20534;-68
2022/12/11 09:36:03;;;;;;;;;;;;;;;0.62;61.90;94553.56;5055649;28;20020;-68
2022/12/11 09:38:29;;;;;;;;;;;;;;;0.20;62.93;94562.25;5071383;28;20019;-67
2022/12/11 09:40:54;;;;;;;;;;;;;;;0.52;61.13;94566.63;5052634;28;20451;-68
2022/12/11 09:43:33;;;;;;;;;;;;;;;0.72;61.56;94553.63;5053450;28;20020;-70
2022/12/11 09:46:01;;;;;;;;;;;;;;;1.06;60.70;94544.53;5071654;28;20469;-69
2022/12/11 09:48:27;;;;;;;;;;;;;;;0.65;60.82;94545.19;5052669;28;20473;-69
2022/12/11 09:50:53;;;;;;;;;;;;;;;0.12;62.95;94548.88;5052806;28;20117;-70
2022/12/11 09:53:37;;;;;;;;;;;;;;;0.65;60.96;94539.97;5071367;28;20017;-69
2022/12/11 09:56:04;;;;;;;;;;;;;;;0.39;60.38;94536.44;5070379;28;20103;-70
2022/12/11 09:58:38;;;;;;;;;;;;;;;0.60;60.74;94539.94;5070795;28;20017;-70
2022/12/11 10:01:07;;;;;;;;;;;;;;;0.69;60.29;94540.25;5053361;28;20428;-70
2022/12/11 10:04:07;;;;;;;;;;;;;;;0.33;61.10;94537.47;5053379;28;20496;-74
2022/12/11 10:06:51;;;;;;;;;;;;;;;-0.03;61.67;94534.66;4963701;28;20015;-67
2022/12/11 10:09:35;;;;;;;;;;;;;;;-0.18;62.21;94534.56;5041068;28;20029;-68
2022/12/11 10:12:13;;;;;;;;;;;;;;;-0.10;62.62;94536.72;5051140;28;20417;-68
2022/12/11 10:14:39;;;;;;;;;;;;;;;0.13;61.13;94529.50;5033216;28;20100;-68
2022/12/11 10:17:13;;;;;;;;;;;;;;;-0.23;61.99;94529.28;5050920;28;20024;-68
2022/12/11 10:19:39;;;;;;;;;;;;;;;-0.43;62.99;94526.53;5032757;28;20650;-69
2022/12/11 10:22:10;;;;;;;;;;;;;;;-0.57;63.59;94523.53;5042419;28;20013;-67
2022/12/11 10:24:41;;;;;;;;;;;;;;;-0.37;63.46;94526.31;5069841;28;20461;-66
2022/12/11 10:27:14;;;;;;;;;;;;;;;-0.55;63.66;94527.50;5069573;28;20017;-69
2022/12/11 10:29:39;;;;;;;;;;;;;;;-0.09;63.93;94514.75;5070223;28;20440;-67
2022/12/11 10:32:11;;;;;;;;;;;;;;;-0.08;63.69;94508.47;5070825;28;20374;-68
2022/12/11 10:34:41;;;;;;;;;;;;;;;-0.08;62.48;94518.16;5070522;28;20017;-69
2022/12/11 10:37:06;;;;;;;;;;;;;;;0.21;62.19;94506.28;5070093;28;20092;-71
2022/12/11 10:39:31;;;;;;;;;;;;;;;-0.34;61.53;94425.75;5069873;28;20109;-69
2022/12/11 10:41:57;;;;;;;;;;;;;;;-0.17;62.48;94506.59;5052157;28;20107;-69
2022/12/11 10:44:27;;;;;;;;;;;;;;;-0.67;61.89;94511.19;5052872;28;20039;-67
2022/12/11 10:47:01;;;;;;;;;;;;;;;-0.64;63.22;94508.09;5070189;28;20081;-68
2022/12/11 10:49:28;;;;;;;;;;;;;;;-0.58;63.93;94501.06;5052373;28;20388;-67
2022/12/11 10:51:54;;;;;;;;;;;;;;;0.05;61.20;94496.78;5070007;28;20024;-66
2022/12/11 10:54:34;;;;;;;;;;;;;;;-0.21;62.22;94502.91;5052894;28;20013;-66
2022/12/11 10:57:00;;;;;;;;;;;;;;;0.06;61.11;94493.13;5052022;28;20338;-68
2022/12/11 10:59:35;;;;;;;;;;;;;;;-0.33;61.05;94490.03;5052511;28;20013;-66
2022/12/11 11:02:01;;;;;;;;;;;;;;;-0.46;62.20;94493.06;5070195;28;20023;-67
2022/12/11 11:04:31;;;;;;;;;;;;;;;0.29;60.86;94489.31;5069797;28;20013;-68
2022/12/11 11:07:22;;;;;;;;;;;;;;;0.61;59.51;94483.16;5051711;28;20429;-66
2022/12/11 11:09:48;;;;;;;;;;;;;;;-0.29;61.00;94485.88;5065751;28;20032;-68
2022/12/11 11:12:19;;;;;;;;;;;;;;;0.18;60.36;94472.00;5052074;28;20116;-68
2022/12/11 11:14:45;;;;;;;;;;;;;;;0.37;60.26;94473.16;5070893;28;20031;-68
2022/12/11 11:17:14;;;;;;;;;;;;;;;-0.09;60.01;94467.69;5051900;28;20017;-66
2022/12/11 11:19:39;;;;;;;;;;;;;;;0.14;60.64;94470.94;5052696;28;20017;-64
2022/12/11 11:22:06;;;;;;;;;;;;;;;0.49;59.45;94459.84;5055396;28;20013;-65
2022/12/11 11:24:43;;;;;;;;;;;;;;;0.03;60.09;94464.88;5056156;28;20455;-65
2022/12/11 11:27:23;;;;;;;;;;;;;;;-0.13;60.52;94453.56;5055868;28;20016;-65
2022/12/11 11:29:52;;;;;;;;;;;;;;;0.68;58.62;94460.94;5055449;28;20021;-66
2022/12/11 11:32:24;;;;;;;;;;;;;;;0.05;59.15;94446.31;5073796;28;20141;-65
2022/12/11 11:34:49;;;;;;;;;;;;;;;0.36;59.12;94445.41;5074000;28;20010;-66
2022/12/11 11:37:22;;;;;;;;;;;;;;;0.29;59.19;94441.44;5072660;28;20014;-66
2022/12/11 11:39:49;;;;;;;;;;;;;;;-0.18;60.84;94442.28;5055101;28;20021;-66
2022/12/11 11:42:19;;;;;;;;;;;;;;;0.04;59.61;94439.50;5054182;28;20091;-66
2022/12/11 11:45:08;;;;;;;;;;;;;;;-0.50;60.36;94444.97;5072127;28;20760;-67
2022/12/11 11:47:36;;;;;;;;;;;;;;;-0.16;60.49;94435.75;5071799;28;20006;-65
2022/12/11 11:50:16;;;;;;;;;;;;;;;-0.28;60.04;94432.56;5053978;28;20025;-65
2022/12/11 11:52:46;;;;;;;;;;;;;;;-0.77;61.15;94439.81;5071459;28;20115;-65
2022/12/11 11:55:17;;;;;;;;;;;;;;;-0.68;60.20;94439.09;5071767;28;20104;-66
2022/12/11 11:57:42;;;;;;;;;;;;;;;-0.72;60.56;94437.22;5054090;28;20504;-66
2022/12/11 12:00:19;;;;;;;;;;;;;;;-0.65;61.24;94433.38;5053327;28;20095;-66
2022/12/11 12:02:45;;;;;;;;;;;;;;;-0.17;60.10;94442.03;5072753;28;20059;-66
2022/12/11 12:05:11;;;;;;;;;;;;;;;-0.41;60.38;94441.66;5073090;28;20009;-70
2022/12/11 12:07:43;;;;;;;;;;;;;;;0.14;59.85;94432.50;5072111;28;20290;-68
2022/12/11 12:10:26;;;;;;;;;;;;;;;-0.56;60.45;94434.50;5072392;28;20021;-70
2022/12/11 12:13:05;;;;;;;;;;;;;;;0.12;59.17;94426.75;5055018;28;20020;-68
2022/12/11 12:15:30;;;;;;;;;;;;;;;0.12;59.33;94428.56;5072735;28;20040;-66
2022/12/11 12:17:58;;;;;;;;;;;;;;;-0.02;60.24;94423.03;5072749;28;20009;-65
2022/12/11 12:20:26;;;;;;;;;;;;;;;-0.11;59.91;94421.94;5072764;28;20018;-67
2022/12/11 12:23:05;;;;;;;;;;;;;;;-0.29;60.43;94426.56;5072020;28;20017;-64
2022/12/11 12:25:35;;;;;;;;;;;;;;;-0.44;60.83;94428.28;5072385;28;20012;-68
2022/12/11 12:28:03;;;;;;;;;;;;;;;-0.72;61.00;94432.78;5072101;28;20500;-66
2022/12/11 12:30:31;;;;;;;;;;;;;;;-0.88;62.38;94431.88;5072417;28;20597;-65
2022/12/11 12:33:20;;;;;;;;;;;;;;;-0.83;62.27;94431.16;5071619;28;20016;-65
2022/12/11 12:36:09;;;;;;;;;;;;;;;-0.64;61.89;94434.16;5072521;28;20069;-66
2022/12/11 12:38:34;;;;;;;;;;;;;;;-0.33;61.24;94414.25;5007075;28;20056;-67
2022/12/11 12:41:19;;;;;;;;;;;;;;;-0.23;61.36;94419.53;5054466;28;20013;-65
2022/12/11 12:44:05;;;;;;;;;;;;;;;0.24;59.44;94421.28;5072316;28;20017;-65
2022/12/11 12:46:40;;;;;;;;;;;;;;;-0.17;60.70;94421.13;5072350;28;20008;-66
2022/12/11 12:49:09;;;;;;;;;;;;;;;0.34;59.60;94420.53;5071566;28;20023;-67
2022/12/11 12:51:38;;;;;;;;;;;;;;;1.16;57.43;94416.22;5072210;28;20488;-67
2022/12/11 12:54:06;;;;;;;;;;;;;;;1.02;57.61;94414.13;5053611;28;20018;-67
2022/12/11 12:56:32;;;;;;;;;;;;;;;1.14;57.08;94415.69;5071967;28;20016;-66
2022/12/11 12:58:57;;;;;;;;;;;;;;;1.62;55.13;94409.09;5053826;28;20020;-67
2022/12/11 13:01:27;;;;;;;;;;;;;;;2.56;54.40;94404.81;5072078;28;20010;-67
2022/12/11 13:04:01;;;;;;;;;;;;;;;2.13;52.69;94408.94;5072093;28;20013;-67
2022/12/11 13:06:37;;;;;;;;;;;;;;;2.21;53.77;94415.50;5071795;28;20009;-69
2022/12/11 13:09:12;;;;;;;;;;;;;;;1.97;55.11;94416.09;5070702;28;20070;-68